Time;durP1;ratioP1;P1;durP2;ratioP2;P2;SDS_P1;SDS_P2;PMS_P1;PMS_P2;Temp;Humidity;BMP_temperature;BMP_pressure;BME280_temperature;BME280_humidity;BME280_pressure;Samples;Min_cycle;Max_cycle;Signal;HPM_P1;HPM_P2
2022/02/09 00:00:45;;;;;;;7.90;3.90;;;;;;;0.02;71.58;98972.16;25169;1315;3026832;-74
2022/02/09 00:03:18;;;;;;;13.10;4.40;;;;;;;-0.07;71.80;98970.84;25181;1315;3026697;-74
2022/02/09 00:08:26;;;;;;;10.40;4.10;;;;;;;-0.30;72.32;98968.98;25202;1315;3055445;-75
2022/02/09 00:10:59;;;;;;;9.70;4.40;;;;;;;-0.17;71.97;98972.63;25158;1315;3026563;-76
2022/02/09 00:16:16;;;;;;;8.10;3.70;;;;;;;-0.28;71.95;98967.90;25172;1315;3026555;-75
2022/02/09 00:18:58;;;;;;;8.30;4.10;;;;;;;-0.22;71.84;98963.27;25181;1315;3058295;-75
2022/02/09 00:22:45;;;;;;;7.60;4.10;;;;;;;-0.29;71.59;98969.15;25146;1315;3050314;-74
2022/02/09 00:43:51;;;;;;;9.20;5.00;;;;;;;-0.00;69.20;98966.52;25159;1315;3026591;-74
2022/02/09 01:39:24;;;;;;;6.50;3.90;;;;;;;-0.50;70.82;98983.58;25171;1315;3049619;-75
2022/02/09 01:56:20;;;;;;;10.10;3.80;;;;;;;0.03;67.64;98985.23;25257;1315;3051084;-76
2022/02/09 01:58:49;;;;;;;8.90;4.50;;;;;;;0.02;67.79;98980.42;25428;1315;3027164;-75
2022/02/09 02:01:19;;;;;;;7.40;4.00;;;;;;;-0.14;68.17;98980.81;25904;1315;3053122;-76
2022/02/09 02:03:48;;;;;;;11.20;3.90;;;;;;;-0.17;68.27;98981.08;25887;1315;3026673;-76
2022/02/09 02:06:18;;;;;;;7.90;3.40;;;;;;;-0.06;67.92;98983.20;25546;1316;3025921;-76
2022/02/09 02:08:51;;;;;;;8.80;4.00;;;;;;;-0.18;68.15;98977.81;25212;1315;3053350;-76
2022/02/09 02:11:26;;;;;;;8.70;4.40;;;;;;;-0.33;68.53;98975.95;25194;1315;3026733;-75
2022/02/09 02:16:55;;;;;;;6.90;3.60;;;;;;;-0.40;69.14;98974.73;25129;1316;3026712;-75
2022/02/09 02:29:57;;;;;;;9.40;4.30;;;;;;;-0.53;69.14;98959.55;25130;1315;3026890;-75
2022/02/09 02:57:16;;;;;;;5.90;3.60;;;;;;;-0.63;69.11;98969.95;25107;1315;3054541;-76
2022/02/09 03:08:59;;;;;;;6.90;3.40;;;;;;;-0.77;68.91;98982.30;25144;1315;3055211;-76
2022/02/09 03:14:28;;;;;;;9.80;4.20;;;;;;;-0.78;68.90;98974.94;25141;1315;3070967;-75
2022/02/09 03:17:03;;;;;;;8.80;4.60;;;;;;;-0.88;69.20;98981.31;25096;1316;3049458;-75
2022/02/09 03:22:52;;;;;;;9.00;4.10;;;;;;;-0.71;68.55;98971.49;25140;1314;3054620;-76
2022/02/09 03:53:12;;;;;;;8.80;4.20;;;;;;;-0.87;66.10;98961.52;25097;1315;3068177;-75
2022/02/09 03:58:19;;;;;;;10.70;4.20;;;;;;;-0.83;65.87;98965.92;25192;1315;3052331;-75
2022/02/09 04:00:50;;;;;;;9.90;4.70;;;;;;;-0.83;65.73;98968.67;25184;1315;3028303;-77
2022/02/09 04:03:28;;;;;;;6.80;3.90;;;;;;;-0.91;65.69;98969.02;25169;1315;3059245;-74
2022/02/09 04:05:58;;;;;;;8.50;4.80;;;;;;;-0.88;66.25;98972.04;25152;1315;3026885;-75
2022/02/09 04:08:32;;;;;;;7.80;4.80;;;;;;;-0.88;66.21;98973.23;25147;1315;3026794;-75
2022/02/09 04:11:16;;;;;;;9.90;5.10;;;;;;;-0.86;66.11;98977.16;25094;1315;3056249;-75
2022/02/09 04:14:13;;;;;;;12.80;5.70;;;;;;;-0.83;66.05;98976.76;25131;1316;3053499;-76
2022/02/09 04:20:02;;;;;;;14.00;5.70;;;;;;;-0.94;66.80;98978.02;24982;1315;3052238;-76
2022/02/09 04:40:25;;;;;;;19.70;7.90;;;;;;;-1.01;66.46;98987.63;25159;1315;3026179;-75
2022/02/09 04:43:06;;;;;;;;;;;;;;;-0.99;66.62;98982.42;25181;1315;3053340;-75
2022/02/09 04:45:46;;;;;;;15.70;7.30;;;;;;;-1.03;66.56;98983.71;25144;1315;3071430;-74
2022/02/09 04:51:18;;;;;;;18.00;6.90;;;;;;;-1.01;66.76;98984.70;25102;1315;3055473;-75
2022/02/09 04:56:48;;;;;;;23.60;11.00;;;;;;;-0.87;66.28;98983.20;25184;1315;3058483;-76
2022/02/09 05:05:35;;;;;;;20.00;11.60;;;;;;;-0.95;66.59;98993.17;25128;1315;3051551;-73
2022/02/09 05:29:46;;;;;;;12.80;5.20;;;;;;;-0.37;63.90;99016.81;25221;1315;3026373;-76
2022/02/09 05:32:17;;;;;;;17.50;5.80;;;;;;;-0.32;64.04;99016.87;25189;1315;3026943;-74
2022/02/09 05:34:46;;;;;;;11.50;5.00;;;;;;;-0.19;64.16;99022.27;25202;1315;3049261;-75
2022/02/09 05:37:14;;;;;;;19.90;7.20;;;;;;;-0.15;63.36;99026.48;25207;1316;3028423;-74
2022/02/09 05:39:43;;;;;;;20.40;7.40;;;;;;;-0.25;63.47;99036.70;25192;1316;3051198;-76
2022/02/09 05:42:17;;;;;;;21.70;8.60;;;;;;;-0.28;63.81;99034.19;25161;1316;3051775;-76
2022/02/09 05:44:47;;;;;;;28.50;8.00;;;;;;;-0.36;64.39;99034.18;25140;1315;3029281;-75
2022/02/09 05:58:22;;;;;;;26.00;7.80;;;;;;;-0.04;63.98;99042.90;25303;1315;3052378;-76
2022/02/09 06:00:59;;;;;;;22.00;7.60;;;;;;;0.01;63.86;99042.78;25247;1315;3053234;-75
2022/02/09 06:03:28;;;;;;;15.60;6.50;;;;;;;0.14;63.61;99045.55;25577;1315;3026644;-76
2022/02/09 06:05:57;;;;;;;18.80;7.60;;;;;;;0.09;63.31;99052.76;25463;1315;3029165;-76
2022/02/09 06:08:26;;;;;;;22.40;7.90;;;;;;;0.00;63.78;99055.20;25235;1315;3053710;-76
2022/02/09 06:11:22;;;;;;;19.70;6.90;;;;;;;-0.06;63.53;99045.71;25243;1314;3027415;-77
2022/02/09 06:14:20;;;;;;;13.20;5.90;;;;;;;-0.10;62.97;99039.60;25136;1315;3050095;-76
2022/02/09 06:19:43;;;;;;;13.50;5.70;;;;;;;-0.00;63.32;99049.54;25170;1316;3056270;-75
2022/02/09 06:22:12;;;;;;;16.80;6.30;;;;;;;0.03;63.49;99046.18;25164;1315;3069911;-76
2022/02/09 06:24:42;;;;;;;14.60;5.70;;;;;;;0.14;63.18;99052.29;25217;1315;3026444;-75
2022/02/09 06:27:12;;;;;;;15.70;6.50;;;;;;;0.20;62.53;99048.35;25180;1314;3026844;-76
2022/02/09 06:29:46;;;;;;;17.30;6.30;;;;;;;0.22;62.42;99052.62;25180;1316;3026222;-76
2022/02/09 06:32:18;;;;;;;13.20;5.70;;;;;;;0.35;62.07;99057.30;25155;1315;3058558;-76
2022/02/09 06:34:47;;;;;;;17.20;5.30;;;;;;;0.29;62.10;99065.54;25118;1316;3026501;-74
2022/02/09 06:39:49;;;;;;;16.10;7.00;;;;;;;0.34;62.23;99063.69;25170;1315;3027915;-76
2022/02/09 06:42:23;;;;;;;18.40;7.70;;;;;;;0.37;62.17;99063.44;25140;1316;3050955;-77
2022/02/09 06:44:55;;;;;;;13.40;6.10;;;;;;;0.48;61.85;99063.65;25205;1319;3051988;-77
2022/02/09 06:47:27;;;;;;;15.20;6.50;;;;;;;0.50;61.55;99067.06;25172;1316;3026780;-75
2022/02/09 06:50:00;;;;;;;16.90;7.50;;;;;;;0.39;62.07;99071.11;25179;1315;3027856;-77
2022/02/09 06:52:29;;;;;;;33.80;11.30;;;;;;;0.48;61.63;99068.33;25165;1316;3026459;-76
2022/02/09 06:55:42;;;;;;;;;;;;;;;;;;;;;
2022/02/09 07:00:23;;;;;;;18.90;7.60;;;;;;;0.63;61.05;99064.48;25162;1315;3028017;-75
2022/02/09 07:02:51;;;;;;;21.20;8.90;;;;;;;0.76;61.34;99069.65;25130;1315;3053060;-75
2022/02/09 07:05:20;;;;;;;18.00;8.50;;;;;;;0.82;60.64;99072.25;25184;1316;3027387;-74
2022/02/09 07:07:49;;;;;;;26.50;9.80;;;;;;;0.88;60.96;99072.63;25164;1316;3053264;-76
2022/02/09 07:12:09;;;;;;;19.20;8.80;;;;;;;1.28;60.44;99078.91;31421;1319;3027141;-64
2022/02/09 07:14:38;;;;;;;27.20;12.10;;;;;;;1.73;60.06;99075.32;24907;1319;3026654;-61
2022/02/09 07:17:08;;;;;;;21.80;8.80;;;;;;;2.08;58.16;99074.76;24890;1319;3026637;-62
2022/02/09 07:19:38;;;;;;;19.20;8.80;;;;;;;1.97;57.56;99075.81;24978;1319;3029847;-60
2022/02/09 07:22:07;;;;;;;20.00;7.70;;;;;;;1.91;57.91;99078.06;25016;1319;3050081;-64
2022/02/09 07:24:38;;;;;;;16.50;8.10;;;;;;;1.80;58.13;99081.67;24224;1319;4312164;-63
2022/02/09 07:27:38;;;;;;;21.30;8.70;;;;;;;1.90;58.20;99083.80;25059;1319;3051389;-63
2022/02/09 07:30:08;;;;;;;17.60;6.40;;;;;;;1.94;57.11;99087.30;25108;1319;3051842;-59
2022/02/09 07:32:37;;;;;;;14.10;6.20;;;;;;;1.86;56.59;99092.23;25222;1316;3026249;-58
2022/02/09 07:35:07;;;;;;;15.40;6.00;;;;;;;2.00;56.82;99094.52;25187;1316;3026557;-60
2022/02/09 07:37:37;;;;;;;11.80;6.20;;;;;;;2.04;56.35;99097.17;25324;1313;3027199;-63
2022/02/09 07:40:10;;;;;;;18.50;6.10;;;;;;;2.12;56.43;99092.44;25372;1313;3027514;-61
2022/02/09 07:42:53;;;;;;;16.60;6.60;;;;;;;2.18;55.50;99093.29;25101;1313;3026998;-63
2022/02/09 07:50:47;;;;;;;49.20;15.40;;;;;;;2.15;56.08;99095.80;25247;1313;3052718;-63
2022/02/09 07:55:50;;;;;;;63.50;21.20;;;;;;;2.31;57.20;99099.94;25175;1313;3057464;-62
2022/02/09 07:58:20;;;;;;;53.90;19.80;;;;;;;2.46;57.14;99103.60;18234;1313;3063326;-66
2022/02/09 08:00:49;;;;;;;81.10;23.80;;;;;;;2.52;56.46;99107.73;25250;1313;3050618;-67
2022/02/09 08:03:18;;;;;;;48.50;19.10;;;;;;;2.55;56.46;99106.74;25132;1313;3029549;-71
2022/02/09 08:05:47;;;;;;;62.50;19.60;;;;;;;2.40;55.61;99112.44;25663;1313;3051683;-67
2022/02/09 08:08:17;;;;;;;75.70;23.40;;;;;;;2.37;55.91;99105.48;25192;1313;3028167;-64
2022/02/09 08:10:51;;;;;;;95.10;27.30;;;;;;;2.41;56.21;99107.57;25162;1313;3051121;-72
2022/02/09 08:35:39;;;;;;;72.60;25.40;;;;;;;2.46;56.19;99122.09;6957;1317;3082745;-74
2022/02/09 08:38:18;;;;;;;58.30;21.00;;;;;;;2.70;56.07;99119.92;7208;1313;3084555;-71
2022/02/09 08:40:53;;;;;;;74.10;24.60;;;;;;;2.64;55.19;99121.84;6572;1321;3095971;-67
2022/02/09 08:43:29;;;;;;;71.20;27.60;;;;;;;2.81;55.64;99117.46;6555;1316;3099568;-68
2022/02/09 08:46:01;;;;;;;77.10;26.50;;;;;;;2.92;55.90;99121.42;6604;1316;3071845;-68
2022/02/09 08:48:32;;;;;;;61.70;21.40;;;;;;;2.92;55.84;99120.90;6928;1313;3068196;-71
2022/02/09 08:57:33;;;;;;;46.80;15.90;;;;;;;2.93;56.71;99121.05;18023;1316;3103113;-70
2022/02/09 09:00:12;;;;;;;46.80;15.90;;;;;;;3.33;55.76;99123.80;4183;1320;3120796;-66
2022/02/09 09:02:51;;;;;;;52.60;21.70;;;;;;;3.74;53.94;99124.34;9836;1319;3093767;-64
2022/02/09 09:05:25;;;;;;;33.20;10.70;;;;;;;3.52;53.64;99125.66;25397;1316;3051043;-71
2022/02/09 09:08:08;;;;;;;21.70;7.70;;;;;;;3.18;54.59;99129.17;25211;1316;3068540;-70
2022/02/09 09:10:58;;;;;;;13.20;6.60;;;;;;;3.18;55.49;99130.56;24417;1313;4256928;-66
2022/02/09 09:19:11;;;;;;;23.10;7.90;;;;;;;3.28;54.50;99112.35;25122;1313;3026451;-61
2022/02/09 10:03:56;;;;;;;18.80;5.20;;;;;;;3.21;54.43;99110.73;25169;1316;3051828;-66
2022/02/09 10:34:12;;;;;;;34.90;13.10;;;;;;;3.80;57.65;99094.63;25172;1313;3028460;-67
2022/02/09 10:37:08;;;;;;;39.90;14.80;;;;;;;3.87;57.96;99098.02;25141;1313;3051520;-68
2022/02/09 10:42:31;;;;;;;38.90;14.30;;;;;;;4.18;57.73;99098.55;25194;1313;3049970;-66
2022/02/09 10:45:08;;;;;;;33.20;14.10;;;;;;;3.98;58.90;99101.59;25118;1316;3068183;-63
2022/02/09 10:47:37;;;;;;;37.30;15.30;;;;;;;4.40;62.01;99103.73;25243;1313;3051676;-65
2022/02/09 10:53:07;;;;;;;39.90;16.70;;;;;;;4.85;56.78;99108.27;25049;1316;3071296;-66
2022/02/09 10:55:46;;;;;;;38.60;16.70;;;;;;;4.73;57.64;99110.67;25140;1316;3051902;-74
2022/02/09 10:58:17;;;;;;;65.10;22.90;;;;;;;4.79;57.45;99112.02;25183;1313;3053649;-68
2022/02/09 11:00:46;;;;;;;57.90;23.30;;;;;;;4.83;56.97;99116.85;25180;1313;3030662;-67
2022/02/09 11:03:17;;;;;;;47.60;22.30;;;;;;;4.86;56.87;99115.53;25137;1313;3026687;-73
2022/02/09 11:05:47;;;;;;;49.10;21.40;;;;;;;5.03;56.78;99115.30;25127;1313;3026921;-74
2022/02/09 11:08:16;;;;;;;59.90;22.70;;;;;;;5.09;56.47;99115.23;25183;1313;3026591;-67
2022/02/09 11:10:50;;;;;;;61.20;22.20;;;;;;;5.08;56.00;99121.70;25078;1316;3026797;-65
2022/02/09 11:13:19;;;;;;;55.20;22.30;;;;;;;5.05;56.16;99123.55;25161;1315;3026803;-63
2022/02/09 11:15:49;;;;;;;64.40;23.90;;;;;;;4.96;56.30;99129.68;25153;1314;3026511;-65
2022/02/09 11:18:21;;;;;;;67.20;24.40;;;;;;;4.85;56.77;99132.91;25149;1315;3050393;-71
2022/02/09 11:20:57;;;;;;;73.50;25.50;;;;;;;4.52;56.98;99133.19;25137;1316;3029746;-68
2022/02/09 11:23:53;;;;;;;72.80;25.50;;;;;;;4.31;57.72;99140.65;25176;1316;3049966;-66
2022/02/09 11:34:49;;;;;;;74.00;25.80;;;;;;;4.07;58.64;99145.60;25135;1316;3049637;-72
2022/02/09 11:37:26;;;;;;;90.40;30.50;;;;;;;3.96;58.89;99142.23;25106;1314;3051577;-66
2022/02/09 11:39:58;;;;;;;101.10;31.00;;;;;;;4.00;59.29;99150.56;25154;1316;3050466;-66
2022/02/09 11:45:45;;;;;;;95.50;32.40;;;;;;;3.87;59.86;99150.52;25123;1316;3047841;-66
2022/02/09 11:54:50;;;;;;;139.00;41.00;;;;;;;4.04;59.64;99154.05;25077;1316;3056129;-72
2022/02/09 12:00:38;;;;;;;142.10;45.50;;;;;;;3.66;60.63;99163.60;25145;1316;3053576;-73
2022/02/09 12:09:50;;;;;;;135.60;40.70;;;;;;;3.54;60.89;99170.11;25142;1313;3049577;-66
2022/02/09 12:12:25;;;;;;;139.50;43.40;;;;;;;3.40;61.86;99175.48;25153;1313;3051868;-67
2022/02/09 12:17:50;;;;;;;65.20;23.80;;;;;;;3.49;63.03;99169.76;25112;1313;3026243;-63
2022/02/09 12:20:25;;;;;;;83.10;26.70;;;;;;;3.80;62.65;99172.81;25101;1316;3049957;-62
2022/02/09 12:26:05;;;;;;;59.30;23.10;;;;;;;3.75;63.55;99179.40;25131;1313;3049296;-65
2022/02/09 12:28:38;;;;;;;47.60;19.80;;;;;;;3.69;64.08;99182.89;25059;1316;3071516;-66
2022/02/09 12:31:12;;;;;;;33.60;12.40;;;;;;;3.64;64.53;99186.36;25061;1313;3026522;-67
2022/02/09 12:33:43;;;;;;;31.10;12.10;;;;;;;3.48;64.78;99196.14;25203;1313;3051266;-75
2022/02/09 12:36:21;;;;;;;33.50;12.60;;;;;;;3.57;64.26;99192.02;25139;1313;3026602;-71
2022/02/09 12:38:55;;;;;;;33.90;14.50;;;;;;;3.51;64.68;99195.66;25140;1315;3059571;-69
2022/02/09 12:41:24;;;;;;;40.10;15.90;;;;;;;3.49;64.75;99198.17;25168;1316;3049748;-74
2022/02/09 12:43:53;;;;;;;41.20;14.70;;;;;;;3.60;64.72;99197.27;25197;1316;3026959;-75
2022/02/09 12:46:27;;;;;;;42.30;14.50;;;;;;;3.47;65.05;99204.67;25175;1316;3056630;-71
2022/02/09 12:49:05;;;;;;;;;;;;;;;3.48;65.30;99207.06;25104;1319;3052595;-74
2022/02/09 12:51:35;;;;;;;28.60;11.90;;;;;;;3.27;65.88;99210.55;25149;1315;3053711;-67
2022/02/09 12:54:04;;;;;;;28.30;12.00;;;;;;;3.30;65.67;99212.17;25161;1319;3025992;-70
2022/02/09 12:56:41;;;;;;;34.20;14.00;;;;;;;3.22;65.83;99211.91;25152;1315;3051940;-72
2022/02/09 12:59:12;;;;;;;34.40;12.40;;;;;;;3.03;67.22;99217.43;25103;1316;3052704;-68
2022/02/09 13:01:54;;;;;;;31.90;13.60;;;;;;;3.05;67.02;99216.50;25138;1317;3026521;-64
2022/02/09 13:04:37;;;;;;;19.50;9.70;;;;;;;2.93;67.72;99224.86;25156;1313;3071299;-63
2022/02/09 13:07:12;;;;;;;33.20;12.50;;;;;;;2.86;68.01;99228.02;25162;1316;3049169;-69
2022/02/09 13:09:46;;;;;;;39.40;13.50;;;;;;;2.65;68.73;99228.86;25174;1313;3055231;-68
2022/02/09 13:12:25;;;;;;;36.10;13.10;;;;;;;2.76;68.34;99234.40;25149;1313;3051910;-67
2022/02/09 13:15:06;;;;;;;45.60;15.00;;;;;;;2.70;68.43;99233.72;25127;1313;3056770;-72
2022/02/09 13:17:59;;;;;;;48.90;15.50;;;;;;;2.67;68.61;99234.69;25052;1319;3049763;-70
2022/02/09 15:08:19;;;;;;;72.00;24.80;;;;;;;3.37;68.51;99290.55;24865;1332;3050167;-76
2022/02/09 15:16:21;;;;;;;57.00;21.90;;;;;;;2.69;71.17;99312.10;24776;1329;3071670;-78
2022/02/09 15:24:35;;;;;;;61.50;23.00;;;;;;;2.45;72.89;99322.84;24819;1330;3051391;-73
2022/02/09 15:27:05;;;;;;;54.40;18.30;;;;;;;2.32;73.58;99324.78;24753;1332;3057344;-77
2022/02/09 15:29:37;;;;;;;58.20;20.40;;;;;;;2.76;72.68;99330.05;24808;1329;3026152;-74
2022/02/09 15:32:13;;;;;;;52.00;19.80;;;;;;;3.22;71.04;99329.65;24877;1329;3027876;-76
2022/02/09 15:34:54;;;;;;;66.10;21.50;;;;;;;3.29;70.60;99333.21;15863;1329;3051306;-81
2022/02/09 15:37:42;;;;;;;63.70;24.90;;;;;;;3.07;71.02;99341.73;20471;1329;3085836;-81
2022/02/09 15:40:23;;;;;;;62.40;22.70;;;;;;;3.05;71.02;99346.29;24986;1332;3049773;-78
2022/02/09 16:06:47;;;;;;;109.60;42.80;;;;;;;3.43;71.67;99377.60;24448;1321;3053037;-74
2022/02/09 16:46:40;;;;;;;62.40;23.60;;;;;;;2.69;73.89;99412.23;25082;1319;3057668;-69
2022/02/09 16:49:14;;;;;;;57.10;24.50;;;;;;;2.64;74.26;99417.39;25029;1318;3026537;-76
2022/02/09 16:51:52;;;;;;;36.40;15.80;;;;;;;2.53;75.06;99422.39;25132;1318;3055914;-74
2022/02/09 17:08:27;;;;;;;47.20;19.30;;;;;;;3.94;70.87;99419.92;25028;1318;3053079;-73
2022/02/09 17:19:19;;;;;;;51.40;21.00;;;;;;;2.95;74.13;99440.38;25000;1318;3054778;-68
2022/02/09 17:21:48;;;;;;;51.10;20.20;;;;;;;2.90;74.78;99443.98;25050;1318;3026683;-78
2022/02/09 17:24:17;;;;;;;36.80;16.00;;;;;;;2.91;74.85;99447.59;25057;1318;3056780;-67
2022/02/09 17:26:46;;;;;;;46.90;20.20;;;;;;;3.31;74.28;99449.31;25001;1318;3026634;-76
2022/02/09 17:29:20;;;;;;;43.10;19.00;;;;;;;3.86;72.31;99442.73;24970;1318;3051939;-72
2022/02/09 17:32:10;;;;;;;;;;;;;;;3.91;71.69;99444.63;24998;1318;3056977;-71
2022/02/09 17:35:06;;;;;;;39.40;17.90;;;;;;;3.63;72.22;99449.18;25025;1318;3053935;-72
2022/02/09 17:37:54;;;;;;;46.70;19.40;;;;;;;3.68;72.11;99449.71;25013;1318;3053512;-63
2022/02/09 17:57:39;;;;;;;43.00;20.90;;;;;;;3.19;73.82;99457.31;24967;1318;3050368;-66
2022/02/09 18:00:16;;;;;;;37.40;17.30;;;;;;;3.20;74.04;99459.34;24909;1321;3053044;-71
2022/02/09 18:02:50;;;;;;;32.60;16.40;;;;;;;3.74;73.02;99458.89;25087;1318;3053691;-66
2022/02/09 18:05:28;;;;;;;38.30;18.60;;;;;;;3.97;71.93;99467.80;25061;1318;3026549;-66
2022/02/09 18:08:05;;;;;;;36.10;17.00;;;;;;;4.04;71.31;99471.41;24998;1319;3052386;-69
2022/02/09 18:32:36;;;;;;;31.10;14.80;;;;;;;3.63;73.82;99487.27;25056;1319;3055099;-72
2022/02/09 18:38:12;;;;;;;38.00;15.70;;;;;;;4.24;70.91;99487.20;25039;1318;3047878;-66
2022/02/09 18:43:41;;;;;;;25.90;14.60;;;;;;;3.72;71.98;99496.19;25021;1318;3053716;-66
2022/02/09 18:56:50;;;;;;;34.90;14.40;;;;;;;3.35;72.99;99505.48;24996;1318;3027195;-65
2022/02/09 19:00:36;;;;;;;28.00;12.60;;;;;;;3.61;73.96;99514.55;24927;1318;3049538;-66
2022/02/09 19:05:34;;;;;;;24.70;11.40;;;;;;;3.86;71.97;99527.44;24950;1318;3026630;-63
2022/02/09 19:19:07;;;;;;;23.60;10.60;;;;;;;2.84;74.84;99541.91;24960;1319;3069438;-64
2022/02/09 19:48:35;;;;;;;15.50;8.20;;;;;;;2.91;73.68;99556.76;25015;1318;3052893;-67
2022/02/09 19:55:54;;;;;;;16.60;7.60;;;;;;;2.59;74.69;99569.91;25070;1318;3026443;-67
2022/02/09 19:58:33;;;;;;;19.20;7.60;;;;;;;3.35;73.20;99569.52;25101;1317;3052076;-64
2022/02/09 20:01:02;;;;;;;17.90;8.10;;;;;;;3.83;70.78;99566.71;25064;1318;3050211;-66
2022/02/09 20:03:34;;;;;;;17.90;7.90;;;;;;;3.87;70.18;99568.14;25101;1318;3026926;-72
2022/02/09 20:06:07;;;;;;;17.10;8.30;;;;;;;3.67;70.09;99569.27;25150;1318;3027065;-69
2022/02/09 20:08:38;;;;;;;18.20;7.70;;;;;;;3.45;70.80;99571.66;25051;1319;3055154;-65
2022/02/09 20:11:10;;;;;;;17.50;7.30;;;;;;;3.22;71.18;99575.11;24921;1319;3027749;-66
2022/02/09 20:13:39;;;;;;;28.10;9.70;;;;;;;3.19;71.10;99569.48;25068;1318;3026764;-67
2022/02/09 20:16:09;;;;;;;22.60;8.70;;;;;;;3.12;71.47;99573.66;24986;1318;3026841;-62
2022/02/09 20:18:38;;;;;;;19.10;8.60;;;;;;;3.12;71.27;99568.29;24947;1317;3026738;-73
2022/02/09 20:21:07;;;;;;;21.80;8.10;;;;;;;2.93;71.61;99576.42;25130;1318;3048367;-70
2022/02/09 20:23:36;;;;;;;21.60;7.60;;;;;;;2.87;71.93;99581.62;25063;1318;3028880;-70
2022/02/09 20:26:09;;;;;;;19.20;7.40;;;;;;;2.94;71.40;99578.99;25052;1318;3067538;-65
2022/02/09 20:28:43;;;;;;;18.20;8.70;;;;;;;2.73;72.13;99590.13;24918;1318;3048669;-70
2022/02/09 20:31:18;;;;;;;13.50;5.20;;;;;;;2.61;72.77;99590.23;25148;1318;3054574;-73
2022/02/09 20:33:54;;;;;;;15.70;6.30;;;;;;;3.27;71.31;99583.60;25051;1319;3051416;-72
2022/02/09 20:36:23;;;;;;;14.90;6.10;;;;;;;3.88;68.88;99584.75;25031;1318;3059215;-70
2022/02/09 20:38:56;;;;;;;13.80;6.30;;;;;;;3.81;68.43;99578.55;24951;1318;3026595;-71
2022/02/09 20:41:25;;;;;;;15.60;6.00;;;;;;;3.72;68.30;99582.29;25004;1318;3052354;-76
2022/02/09 20:44:21;;;;;;;16.90;7.60;;;;;;;3.44;68.60;99581.05;24991;1318;3027019;-70
2022/02/09 20:46:52;;;;;;;17.50;6.40;;;;;;;3.28;69.05;99584.28;24961;1318;3051670;-64
2022/02/09 20:49:21;;;;;;;15.30;5.70;;;;;;;3.16;69.20;99583.92;24963;1318;3026636;-76
2022/02/09 20:51:51;;;;;;;18.50;7.00;;;;;;;2.99;69.45;99587.49;24998;1318;3027049;-68
2022/02/09 20:54:20;;;;;;;13.30;5.90;;;;;;;2.92;69.69;99584.42;25055;1318;3051541;-74
2022/02/09 20:56:49;;;;;;;15.70;5.60;;;;;;;2.80;69.77;99593.56;25023;1318;3027921;-70
2022/02/09 20:59:19;;;;;;;16.40;5.30;;;;;;;2.67;70.23;99602.73;24982;1318;3048204;-70
2022/02/09 21:01:59;;;;;;;14.20;5.70;;;;;;;2.68;70.41;99595.25;25033;1318;3026884;-71
2022/02/09 21:04:30;;;;;;;13.10;5.50;;;;;;;2.54;70.60;99600.48;24954;1318;3051322;-71
2022/02/09 21:07:09;;;;;;;14.70;5.00;;;;;;;2.47;70.87;99603.92;25013;1318;3026698;-72
2022/02/09 21:09:53;;;;;;;11.40;5.60;;;;;;;2.37;70.90;99606.77;24999;1318;3049568;-70
2022/02/09 21:12:38;;;;;;;11.60;5.40;;;;;;;2.39;70.74;99606.73;24961;1318;3053816;-71
2022/02/09 21:21:04;;;;;;;18.40;5.90;;;;;;;2.26;70.86;99618.78;25048;1318;3051521;-67
2022/02/09 21:45:33;;;;;;;15.70;5.10;;;;;;;2.14;69.72;99640.48;25010;1318;3026592;-67
2022/02/09 22:01:54;;;;;;;15.00;4.20;;;;;;;2.23;69.16;99649.64;24988;1318;3028540;-68
2022/02/09 22:28:45;;;;;;;9.80;4.10;;;;;;;2.22;68.31;99664.52;25014;1318;3049259;-67
2022/02/09 22:55:08;;;;;;;8.60;3.20;;;;;;;2.26;68.07;99670.30;24985;1318;3026737;-66
2022/02/09 23:00:38;;;;;;;7.70;3.30;;;;;;;2.37;67.63;99669.89;25097;1318;3050954;-64
2022/02/09 23:03:10;;;;;;;8.90;3.70;;;;;;;2.33;67.91;99670.33;24994;1318;3069398;-62
2022/02/09 23:25:37;;;;;;;8.90;3.90;;;;;;;3.00;67.90;99684.38;24911;1318;3071463;-73
